createdAt,value
2018-01-22T00:00:24.498Z,2.90
2018-01-22T00:02:55.109Z,3.30
2018-01-22T00:05:24.084Z,2.67
2018-01-22T00:07:52.939Z,3.43
2018-01-22T00:10:22.750Z,3.27
2018-01-22T00:12:52.199Z,2.70
2018-01-22T00:15:21.152Z,3.10
2018-01-22T00:17:58.898Z,3.20
2018-01-22T00:20:30.620Z,3.10
2018-01-22T00:23:00.858Z,2.77
2018-01-22T00:25:31.351Z,4.13
2018-01-22T00:28:23.642Z,3.50
2018-01-22T00:30:52.638Z,3.50
2018-01-22T00:33:24.807Z,3.70
2018-01-22T00:35:56.721Z,3.17
2018-01-22T00:38:26.034Z,3.60
2018-01-22T00:40:55.495Z,3.93
2018-01-22T00:43:23.962Z,3.57
2018-01-22T00:45:54.689Z,4.13
2018-01-22T00:48:24.578Z,3.33
2018-01-22T00:50:54.731Z,4.10
2018-01-22T00:53:27.684Z,3.30
2018-01-22T00:55:58.039Z,3.20
2018-01-22T00:58:28.433Z,3.80
2018-01-22T01:00:56.961Z,3.23
2018-01-22T01:03:25.291Z,3.70
2018-01-22T01:05:54.651Z,3.23
2018-01-22T01:08:27.105Z,3.60
2018-01-22T01:10:58.578Z,3.90
2018-01-22T01:13:27.885Z,4.87
2018-01-22T01:15:56.817Z,3.90
2018-01-22T01:18:25.570Z,3.80
2018-01-22T01:20:57.425Z,3.93
2018-01-22T01:23:25.752Z,4.07
2018-01-22T01:25:54.686Z,3.83
2018-01-22T01:28:25.560Z,4.40
2018-01-22T01:30:54.837Z,4.33
2018-01-22T01:33:24.366Z,4.40
2018-01-22T01:35:52.681Z,3.90
2018-01-22T01:38:26.283Z,4.30
2018-01-22T01:40:54.961Z,4.80
2018-01-22T01:43:23.489Z,4.37
2018-01-22T01:45:51.762Z,4.70
2018-01-22T01:48:20.088Z,5.23
2018-01-22T01:50:49.230Z,5.47
2018-01-22T01:53:23.784Z,6.20
2018-01-22T01:55:53.611Z,5.87
2018-01-22T01:58:22.424Z,5.30
2018-01-22T02:00:50.891Z,6.67
2018-01-22T02:03:19.201Z,5.83
2018-01-22T02:05:48.251Z,6.00
2018-01-22T02:08:20.651Z,5.93
2018-01-22T02:10:52.081Z,5.63
2018-01-22T02:13:21.736Z,6.47
2018-01-22T02:15:52.242Z,6.60
2018-01-22T02:18:20.744Z,5.90
2018-01-22T02:20:49.822Z,7.17
2018-01-22T02:23:18.974Z,6.07
2018-01-22T02:25:51.006Z,7.00
2018-01-22T02:28:21.010Z,6.20
2018-01-22T02:30:49.830Z,5.63
2018-01-22T02:33:18.110Z,5.83
2018-01-22T02:35:48.511Z,5.60
2018-01-22T02:38:19.676Z,6.10
2018-01-22T02:40:52.863Z,5.80
2018-01-22T02:43:26.143Z,6.57
2018-01-22T02:45:55.800Z,5.80
2018-01-22T02:48:24.367Z,5.20
2018-01-22T02:50:52.674Z,6.20
2018-01-22T02:53:21.747Z,6.33
2018-01-22T02:55:52.497Z,6.47
2018-01-22T02:58:21.375Z,6.37
2018-01-22T03:00:51.646Z,6.53
2018-01-22T03:03:20.245Z,5.70
2018-01-22T03:05:48.822Z,6.20
2018-01-22T03:08:23.596Z,5.90
2018-01-22T03:10:51.891Z,5.37
2018-01-22T03:13:24.336Z,6.03
2018-01-22T03:15:57.414Z,5.87
2018-01-22T03:18:26.488Z,6.03
2018-01-22T03:20:56.037Z,6.80
2018-01-22T03:23:26.306Z,5.60
2018-01-22T03:25:54.594Z,6.10
2018-01-22T03:28:22.905Z,6.00
2018-01-22T03:30:57.861Z,6.20
2018-01-22T03:33:26.952Z,7.50
2018-01-22T03:35:56.063Z,6.80
2018-01-22T03:38:25.964Z,5.87
2018-01-22T03:40:54.967Z,6.77
2018-01-22T03:43:34.050Z,5.97
2018-01-22T03:46:03.957Z,6.17
2018-01-22T03:48:34.741Z,6.60
2018-01-22T03:51:03.081Z,5.67
2018-01-22T03:53:32.683Z,6.60
2018-01-22T03:56:01.990Z,6.47
2018-01-22T03:58:31.865Z,6.03
2018-01-22T04:01:00.733Z,6.57
2018-01-22T04:03:29.823Z,5.80
2018-01-22T04:06:01.167Z,7.00
2018-01-22T04:08:33.536Z,6.40
2018-01-22T04:11:06.322Z,6.60
2018-01-22T04:13:35.295Z,6.17
2018-01-22T04:16:04.102Z,6.00
2018-01-22T04:18:32.518Z,5.60
2018-01-22T04:21:00.842Z,5.80
2018-01-22T04:23:31.276Z,6.30
2018-01-22T04:26:04.242Z,6.37
2018-01-22T04:28:33.081Z,5.30
2018-01-22T04:31:01.395Z,6.03
2018-01-22T04:33:30.310Z,5.83
2018-01-22T04:35:58.640Z,5.60
2018-01-22T04:38:29.511Z,5.33
2018-01-22T04:41:00.572Z,6.73
2018-01-22T04:43:28.988Z,5.80
2018-01-22T04:45:58.259Z,5.93
2018-01-22T04:48:26.661Z,7.03
2018-01-22T04:50:56.147Z,6.57
2018-01-22T04:53:26.831Z,5.20
2018-01-22T04:55:58.415Z,5.30
2018-01-22T04:58:31.734Z,6.30
2018-01-22T05:01:01.949Z,6.20
2018-01-22T05:03:31.117Z,5.47
2018-01-22T05:05:59.734Z,5.70
2018-01-22T05:08:28.063Z,6.43
2018-01-22T05:10:56.914Z,5.53
2018-01-22T05:13:25.475Z,5.93
2018-01-22T05:15:54.829Z,5.47
2018-01-22T05:18:23.114Z,5.30
2018-01-22T05:20:52.119Z,5.37
2018-01-22T05:23:21.011Z,6.03
2018-01-22T05:25:51.638Z,6.57
2018-01-22T05:28:21.447Z,5.73
2018-01-22T05:30:52.057Z,5.20
2018-01-22T05:33:21.155Z,5.20
2018-01-22T05:35:50.756Z,5.20
2018-01-22T05:38:24.906Z,5.37
2018-01-22T05:40:54.652Z,5.60
2018-01-22T05:43:27.626Z,6.50
2018-01-22T05:46:01.683Z,5.17
2018-01-22T05:48:30.499Z,4.87
2018-01-22T05:51:03.451Z,5.40
2018-01-22T05:53:32.303Z,4.93
2018-01-22T05:56:01.853Z,5.83
2018-01-22T05:58:32.269Z,5.63
2018-01-22T06:01:01.492Z,5.77
2018-01-22T06:03:32.090Z,5.83
2018-01-22T06:06:03.664Z,6.03
2018-01-22T06:08:32.208Z,6.10
2018-01-22T06:11:02.061Z,5.93
2018-01-22T06:13:30.403Z,6.00
2018-01-22T06:15:59.213Z,5.70
2018-01-22T06:18:31.172Z,5.27
2018-01-22T06:21:02.195Z,6.10
2018-01-22T06:23:30.480Z,6.13
2018-01-22T06:25:59.670Z,5.73
2018-01-22T06:28:28.185Z,6.23
2018-01-22T06:30:58.004Z,6.23
2018-01-22T06:33:29.143Z,5.60
2018-01-22T06:36:00.381Z,5.73
2018-01-22T06:38:30.180Z,5.63
2018-01-22T06:40:59.259Z,5.60
2018-01-22T06:43:28.179Z,6.07
2018-01-22T06:45:56.755Z,6.27
2018-01-22T06:48:25.450Z,6.13
2018-01-22T06:50:57.204Z,6.40
2018-01-22T06:53:28.773Z,6.17
2018-01-22T06:55:58.746Z,6.63
2018-01-22T06:58:29.408Z,6.30
2018-01-22T07:00:57.744Z,6.07
2018-01-22T07:03:30.480Z,7.30
2018-01-22T07:05:59.498Z,6.87
2018-01-22T07:08:28.817Z,7.03
2018-01-22T07:10:57.236Z,6.67
2018-01-22T07:13:26.231Z,6.23
2018-01-22T07:15:56.017Z,7.73
2018-01-22T07:18:25.470Z,6.10
2018-01-22T07:20:55.661Z,6.40
2018-01-22T07:23:27.846Z,6.67
2018-01-22T07:25:56.315Z,7.70
2018-01-22T07:28:27.454Z,7.73
2018-01-22T07:30:57.431Z,7.03
2018-01-22T07:33:29.466Z,6.30
2018-01-22T07:35:59.456Z,7.47
2018-01-22T07:38:30.183Z,7.40
2018-01-22T07:40:58.544Z,6.73
2018-01-22T07:43:27.380Z,7.20
2018-01-22T07:45:56.657Z,6.10
2018-01-22T07:48:29.201Z,7.27
2018-01-22T07:50:57.498Z,7.00
2018-01-22T07:53:25.952Z,6.87
2018-01-22T07:55:57.006Z,7.03
2018-01-22T07:58:28.618Z,6.90
2018-01-22T08:00:57.774Z,6.20
2018-01-22T08:03:28.321Z,6.20
2018-01-22T08:05:57.687Z,7.07
2018-01-22T08:08:27.351Z,6.40
2018-01-22T08:10:56.714Z,6.93
2018-01-22T08:13:24.989Z,6.90
2018-01-22T08:15:55.297Z,6.40
2018-01-22T08:18:27.102Z,6.57
2018-01-22T08:21:18.401Z,6.03
2018-01-22T08:23:46.727Z,7.00
2018-01-22T08:26:15.767Z,6.83
2018-01-22T08:28:46.023Z,6.60
2018-01-22T08:31:14.580Z,6.37
2018-01-22T08:34:07.086Z,6.23
2018-01-22T08:36:35.585Z,6.10
2018-01-22T08:39:05.319Z,6.43
2018-01-22T08:41:35.925Z,5.93
2018-01-22T08:44:06.256Z,7.17
2018-01-22T08:46:35.361Z,6.87
2018-01-22T08:49:12.011Z,6.70
2018-01-22T08:51:40.641Z,6.60
2018-01-22T08:54:09.275Z,6.80
2018-01-22T08:56:39.953Z,6.97
2018-01-22T08:59:09.495Z,5.57
2018-01-22T09:01:38.040Z,6.73
2018-01-22T09:04:07.419Z,7.17
2018-01-22T09:06:35.880Z,6.50
2018-01-22T09:09:05.407Z,6.97
2018-01-22T09:11:34.097Z,6.73
2018-01-22T09:14:02.378Z,6.23
2018-01-22T09:16:30.750Z,6.80
2018-01-22T09:18:59.442Z,8.03
2018-01-22T09:21:28.606Z,7.43
2018-01-22T09:23:58.101Z,8.57
2018-01-22T09:26:27.260Z,7.20
2018-01-22T09:28:56.338Z,7.40
2018-01-22T09:31:24.757Z,7.53
2018-01-22T09:33:54.133Z,7.40
2018-01-22T09:36:25.766Z,7.80
2018-01-22T09:38:57.633Z,7.53
2018-01-22T09:41:29.148Z,7.97
2018-01-22T09:43:58.286Z,7.33
2018-01-22T09:46:26.932Z,7.47
2018-01-22T09:48:55.417Z,6.70
2018-01-22T09:51:25.823Z,7.23
2018-01-22T09:53:56.661Z,7.23
2018-01-22T09:56:28.056Z,6.17
2018-01-22T09:58:57.314Z,5.97
2018-01-22T10:01:25.625Z,7.10
2018-01-22T10:03:53.906Z,5.57
2018-01-22T10:06:47.284Z,5.77
2018-01-22T10:09:15.609Z,6.37
2018-01-22T10:11:44.854Z,5.90
2018-01-22T10:14:13.173Z,6.27
2018-01-22T10:16:42.195Z,7.00
2018-01-22T10:19:12.949Z,6.57
2018-01-22T10:21:41.820Z,6.47
2018-01-22T10:24:10.133Z,6.77
2018-01-22T10:26:38.444Z,6.37
2018-01-22T10:29:07.046Z,6.77
2018-01-22T10:31:36.336Z,5.83
2018-01-22T10:34:08.016Z,6.17
2018-01-22T10:36:36.756Z,6.10
2018-01-22T10:39:05.452Z,5.87
2018-01-22T10:41:34.629Z,5.40
2018-01-22T10:44:03.833Z,6.20
2018-01-22T10:46:34.207Z,5.83
2018-01-22T10:49:08.358Z,6.07
2018-01-22T10:51:40.325Z,5.83
2018-01-22T10:54:09.500Z,6.43
2018-01-22T10:56:37.785Z,5.70
2018-01-22T10:59:06.108Z,6.17
2018-01-22T11:01:35.148Z,5.43
2018-01-22T11:04:05.820Z,5.47
2018-01-22T11:06:38.251Z,5.17
2018-01-22T11:09:07.695Z,4.90
2018-01-22T11:11:36.220Z,5.37
2018-01-22T11:14:04.552Z,5.33
2018-01-22T11:16:33.592Z,5.60
2018-01-22T11:19:04.457Z,5.40
2018-01-22T11:22:13.696Z,6.10
2018-01-22T11:24:43.846Z,5.70
2018-01-22T11:27:12.661Z,5.23
2018-01-22T11:29:40.962Z,5.80
2018-01-22T11:32:09.673Z,6.30
2018-01-22T11:34:38.281Z,5.47
2018-01-22T11:37:48.396Z,5.93
2018-01-22T11:40:18.092Z,4.33
2018-01-22T11:42:50.782Z,4.63
2018-01-22T11:45:27.830Z,5.53
2018-01-22T11:48:00.118Z,4.63
2018-01-22T11:50:30.319Z,4.90
2018-01-22T11:52:59.260Z,4.50
2018-01-22T11:55:27.699Z,5.03
2018-01-22T11:57:56.035Z,4.70
2018-01-22T12:00:26.016Z,4.70
2018-01-22T12:02:58.751Z,4.60
2018-01-22T12:05:28.383Z,4.67
2018-01-22T12:07:58.432Z,5.23
2018-01-22T12:10:26.732Z,4.70
2018-01-22T12:12:55.184Z,5.17
2018-01-22T12:15:23.481Z,5.23
2018-01-22T12:17:56.809Z,4.47
2018-01-22T12:20:31.717Z,3.90
2018-01-22T12:23:02.814Z,4.83
2018-01-22T12:25:32.379Z,4.40
2018-01-22T12:28:04.489Z,4.73
2018-01-22T12:30:34.173Z,4.37
2018-01-22T12:33:02.796Z,4.43
2018-01-22T12:35:32.738Z,4.20
2018-01-22T12:38:01.072Z,3.90
2018-01-22T12:40:31.036Z,4.20
2018-01-22T12:43:00.009Z,4.80
2018-01-22T12:45:28.664Z,4.73
2018-01-22T12:47:57.062Z,4.03
2018-01-22T12:50:25.442Z,4.20
2018-01-22T12:52:54.589Z,4.13
2018-01-22T12:55:24.012Z,3.90
2018-01-22T12:57:52.326Z,3.80
2018-01-22T13:00:21.017Z,3.63
2018-01-22T13:02:51.078Z,4.13
2018-01-22T13:05:21.247Z,3.40
2018-01-22T13:07:49.717Z,3.70
2018-01-22T13:10:19.129Z,3.57
2018-01-22T13:12:47.439Z,3.50
2018-01-22T13:15:15.769Z,3.97
2018-01-22T13:17:46.915Z,3.20
2018-01-22T13:20:17.337Z,3.20
2018-01-22T13:22:46.556Z,3.50
2018-01-22T13:25:15.113Z,3.77
2018-01-22T13:27:43.907Z,3.43
2018-01-22T13:30:13.415Z,3.20
2018-01-22T13:32:45.849Z,3.17
2018-01-22T13:35:14.157Z,3.27
2018-01-22T13:37:42.437Z,3.40
2018-01-22T13:40:17.561Z,3.10
2018-01-22T13:42:45.888Z,3.43
2018-01-22T13:45:14.250Z,3.27
2018-01-22T13:47:43.162Z,3.70
2018-01-22T13:50:11.475Z,3.90
2018-01-22T13:53:08.738Z,3.60
2018-01-22T13:55:38.560Z,3.47
2018-01-22T13:58:10.102Z,3.60
2018-01-22T14:00:38.429Z,3.67
2018-01-22T14:03:07.008Z,3.63
2018-01-22T14:05:35.881Z,3.53
2018-01-22T14:08:04.391Z,4.07
2018-01-22T14:10:32.848Z,4.57
2018-01-22T14:13:03.050Z,5.03
2018-01-22T14:15:31.787Z,5.53
2018-01-22T14:18:00.416Z,5.27
2018-01-22T14:20:29.031Z,3.33
2018-01-22T14:22:57.665Z,3.33
2018-01-22T14:25:28.211Z,2.90
2018-01-22T14:27:57.088Z,3.20
2018-01-22T14:30:25.930Z,3.60
2018-01-22T14:32:54.288Z,3.90
2018-01-22T14:35:23.808Z,3.40
2018-01-22T14:37:53.239Z,4.00
2018-01-22T14:40:25.569Z,4.67
2018-01-22T14:42:54.061Z,5.00
2018-01-22T14:45:23.095Z,4.77
2018-01-22T14:47:51.648Z,5.10
2018-01-22T14:50:23.816Z,6.40
2018-01-22T14:52:52.819Z,5.77
2018-01-22T14:55:24.135Z,7.13
2018-01-22T14:57:55.370Z,7.57
2018-01-22T15:00:24.113Z,6.03
2018-01-22T15:02:54.817Z,5.93
2018-01-22T15:05:23.114Z,5.63
2018-01-22T15:07:51.691Z,3.50
2018-01-22T15:10:20.692Z,3.87
2018-01-22T15:12:49.713Z,3.90
2018-01-22T15:15:18.244Z,3.27
2018-01-22T15:17:46.541Z,4.03
2018-01-22T15:20:17.556Z,3.90
2018-01-22T15:22:48.289Z,3.90
2018-01-22T15:25:20.613Z,3.53
2018-01-22T15:27:51.057Z,4.93
2018-01-22T15:30:19.431Z,5.17
2018-01-22T15:32:47.770Z,5.40
2018-01-22T15:35:16.350Z,6.27
2018-01-22T15:37:46.673Z,6.27
2018-01-22T15:40:20.004Z,6.93
2018-01-22T15:42:49.416Z,7.70
2018-01-22T15:45:19.659Z,8.63
2018-01-22T15:47:48.593Z,8.57
2018-01-22T15:50:17.173Z,7.73
2018-01-22T15:52:45.473Z,6.80
2018-01-22T15:55:15.063Z,6.63
2018-01-22T15:57:44.154Z,5.87
2018-01-22T16:00:14.939Z,5.10
2018-01-22T16:02:47.649Z,4.63
2018-01-22T16:05:17.515Z,4.60
2018-01-22T16:07:47.413Z,4.83
2018-01-22T16:10:17.213Z,4.50
2018-01-22T16:12:49.499Z,4.17
2018-01-22T16:15:18.323Z,4.27
2018-01-22T16:17:48.142Z,4.73
2018-01-22T16:20:18.664Z,5.93
2018-01-22T16:22:48.388Z,6.90
2018-01-22T16:25:17.288Z,7.50
2018-01-22T16:27:47.923Z,6.73
2018-01-22T16:30:19.441Z,6.00
2018-01-22T16:32:50.104Z,5.53
2018-01-22T16:35:18.497Z,4.33
2018-01-22T16:37:47.630Z,4.60
2018-01-22T16:40:16.219Z,4.43
2018-01-22T16:42:44.498Z,4.77
2018-01-22T16:45:14.568Z,3.30
2018-01-22T16:47:49.485Z,3.83
2018-01-22T16:50:19.096Z,3.70
2018-01-22T16:52:47.785Z,3.60
2018-01-22T16:55:16.187Z,4.63
2018-01-22T16:57:45.649Z,3.37
2018-01-22T17:00:17.813Z,4.13
2018-01-22T17:02:46.744Z,4.93
2018-01-22T17:05:15.454Z,6.60
2018-01-22T17:07:43.774Z,7.13
2018-01-22T17:10:13.020Z,7.40
2018-01-22T17:12:44.216Z,7.50
2018-01-22T17:15:17.291Z,7.27
2018-01-22T17:17:46.622Z,6.40
2018-01-22T17:20:15.702Z,5.40
2018-01-22T17:22:44.305Z,4.07
2018-01-22T17:25:13.317Z,4.10
2018-01-22T17:27:41.928Z,3.63
2018-01-22T17:30:12.958Z,3.53
2018-01-22T17:32:43.461Z,3.90
2018-01-22T17:35:12.104Z,3.20
2018-01-22T17:37:40.661Z,3.40
2018-01-22T17:40:08.999Z,4.17
2018-01-22T17:42:37.842Z,3.97
2018-01-22T17:45:12.114Z,4.63
2018-01-22T17:47:42.866Z,4.50
2018-01-22T17:50:11.842Z,4.33
2018-01-22T17:52:40.733Z,4.20
2018-01-22T17:55:09.794Z,3.60
2018-01-22T17:57:39.181Z,3.60
2018-01-22T18:00:09.014Z,4.33
2018-01-22T18:02:52.428Z,3.50
2018-01-22T18:05:29.906Z,3.57
2018-01-22T18:07:58.667Z,3.60
2018-01-22T18:10:29.644Z,3.83
2018-01-22T18:13:02.732Z,3.47
2018-01-22T18:15:31.244Z,3.40
2018-01-22T18:17:59.641Z,3.93
2018-01-22T18:20:29.535Z,4.67
2018-01-22T18:22:59.409Z,4.70
2018-01-22T18:25:31.026Z,3.50
2018-01-22T18:28:02.828Z,4.37
2018-01-22T18:30:36.901Z,4.20
2018-01-22T18:33:07.516Z,4.30
2018-01-22T18:35:36.891Z,3.73
2018-01-22T18:38:05.200Z,3.60
2018-01-22T18:40:33.503Z,3.40
2018-01-22T18:43:03.141Z,4.20
2018-01-22T18:45:36.921Z,4.63
2018-01-22T18:48:07.132Z,4.70
2018-01-22T18:50:36.179Z,4.27
2018-01-22T18:53:07.634Z,3.93
2018-01-22T18:55:35.973Z,4.83
2018-01-22T18:58:04.309Z,4.73
2018-01-22T19:00:32.773Z,4.40
2018-01-22T19:03:02.757Z,3.83
2018-01-22T19:05:33.014Z,4.53
2018-01-22T19:08:01.314Z,4.07
2018-01-22T19:10:29.696Z,3.90
2018-01-22T19:13:23.397Z,4.20
2018-01-22T19:15:55.576Z,4.43
2018-01-22T19:18:36.991Z,4.13
2018-01-22T19:21:05.318Z,4.43
2018-01-22T19:23:34.831Z,4.40
2018-01-22T19:26:03.107Z,4.17
2018-01-22T19:35:27.455Z,3.97
2018-01-22T19:37:56.057Z,4.37
2018-01-22T19:40:24.345Z,4.40
2018-01-22T19:42:52.681Z,4.30
2018-01-22T19:45:22.675Z,5.00
2018-01-22T19:47:51.695Z,4.13
2018-01-22T19:50:22.425Z,4.30
2018-01-22T19:52:56.204Z,3.40
2018-01-22T19:55:24.817Z,4.00
2018-01-22T20:02:00.246Z,3.73
2018-01-22T20:04:30.614Z,4.07
2018-01-22T20:06:59.846Z,4.00
2018-01-22T20:09:29.148Z,5.10
2018-01-22T20:12:02.473Z,4.43
2018-01-22T20:14:35.274Z,4.70
2018-01-22T20:17:03.635Z,4.50
2018-01-22T20:19:32.102Z,4.70
2018-01-22T20:22:00.422Z,5.00
2018-01-22T20:24:28.989Z,5.43
2018-01-22T20:26:58.592Z,3.73
2018-01-22T20:29:44.425Z,4.97
2018-01-22T20:32:12.716Z,4.27
2018-01-22T20:34:45.777Z,5.17
2018-01-22T20:37:17.002Z,4.67
2018-01-22T20:39:45.354Z,5.10
2018-01-22T20:42:13.646Z,5.07
2018-01-22T20:44:41.965Z,5.63
2018-01-22T20:47:10.333Z,5.53
2018-01-22T20:49:39.792Z,5.07
2018-01-22T20:52:09.715Z,5.13
2018-01-22T20:54:40.602Z,5.20
2018-01-22T20:57:12.352Z,5.07
2018-01-22T20:59:40.851Z,4.63
2018-01-22T21:02:09.428Z,4.80
2018-01-22T21:04:40.560Z,4.73
2018-01-22T21:07:10.382Z,5.27
2018-01-22T21:09:39.199Z,4.93
2018-01-22T21:12:07.785Z,4.53
2018-01-22T21:14:36.119Z,4.73
2018-01-22T21:17:04.470Z,4.87
2018-01-22T21:19:32.749Z,4.40
2018-01-22T21:22:01.819Z,4.17
2018-01-22T21:24:30.109Z,4.57
2018-01-22T21:27:01.798Z,3.70
2018-01-22T21:29:32.023Z,3.97
2018-01-22T21:32:00.309Z,3.80
2018-01-22T21:34:28.866Z,4.00
2018-01-22T21:36:58.179Z,4.07
2018-01-22T21:39:26.519Z,3.60
2018-01-22T21:41:55.667Z,4.20
2018-01-22T21:44:25.028Z,3.53
2018-01-22T21:46:53.382Z,4.43
2018-01-22T21:49:22.020Z,3.97
2018-01-22T21:51:50.717Z,3.57
2018-01-22T21:54:19.799Z,3.50
2018-01-22T21:56:48.109Z,3.80
2018-01-22T21:59:16.848Z,3.50
2018-01-22T22:01:46.125Z,3.30
2018-01-22T22:04:15.882Z,3.40
2018-01-22T22:06:45.209Z,3.37
2018-01-22T22:09:15.335Z,3.63
2018-01-22T22:11:45.640Z,3.37
2018-01-22T22:14:28.100Z,2.90
2018-01-22T22:16:56.481Z,3.70
2018-01-22T22:19:25.213Z,3.33
2018-01-22T22:21:53.545Z,3.87
2018-01-22T22:24:22.013Z,4.33
2018-01-22T22:26:54.266Z,3.73
2018-01-22T22:29:22.583Z,3.50
2018-01-22T22:32:02.196Z,3.53
2018-01-22T22:34:37.543Z,2.97
2018-01-22T22:37:10.733Z,3.53
2018-01-22T22:39:39.465Z,2.77
2018-01-22T22:42:09.386Z,3.20
2018-01-22T22:44:57.616Z,2.90
2018-01-22T22:47:27.984Z,3.13
2018-01-22T22:49:59.303Z,3.50
2018-01-22T22:52:27.869Z,3.07
2018-01-22T22:54:57.814Z,3.80
2018-01-22T22:57:26.897Z,3.13
2018-01-22T23:00:09.700Z,3.00
2018-01-22T23:02:38.586Z,2.90
2018-01-22T23:05:07.958Z,2.90
2018-01-22T23:07:37.210Z,3.20
2018-01-22T23:10:09.204Z,2.97
2018-01-22T23:12:38.641Z,2.80
2018-01-22T23:15:19.183Z,3.00
2018-01-22T23:17:51.226Z,2.87
2018-01-22T23:20:23.041Z,2.83
2018-01-22T23:22:52.157Z,3.83
2018-01-22T23:25:21.671Z,2.80
2018-01-22T23:27:50.791Z,2.83
2018-01-22T23:30:19.645Z,2.90
2018-01-22T23:32:49.306Z,2.63
2018-01-22T23:35:22.526Z,2.97
2018-01-22T23:37:53.450Z,2.57
2018-01-22T23:40:22.607Z,2.83
2018-01-22T23:42:50.951Z,3.10
2018-01-22T23:45:39.687Z,2.90
2018-01-22T23:48:08.378Z,2.40
2018-01-22T23:50:40.436Z,2.60
2018-01-22T23:53:09.002Z,2.77
2018-01-22T23:55:38.119Z,3.13
2018-01-22T23:58:06.421Z,2.23
